Time;durP1;ratioP1;P1;durP2;ratioP2;P2;SDS_P1;SDS_P2;PMS_P1;PMS_P2;Temp;Humidity;BMP_temperature;BMP_pressure;BME280_temperature;BME280_humidity;BME280_pressure;Samples;Min_cycle;Max_cycle;Signal;HPM_P1;HPM_P2
2021/12/13 00:02:18;;;;;;;;;7.25;6.00;;;;;21.46;39.32;102178.09;5057331;28;45334;-53
2021/12/13 00:05:12;;;;;;;;;7.00;7.00;;;;;21.45;39.58;102171.97;5056474;28;46420;-57
2021/12/13 00:07:41;;;;;;;;;7.00;6.50;;;;;21.45;39.51;102165.81;5027373;28;45928;-54
2021/12/13 00:10:20;;;;;;;;;4.25;4.25;;;;;21.44;39.51;102164.13;5057216;28;45262;-56
2021/12/13 00:12:50;;;;;;;;;6.75;6.75;;;;;21.43;39.36;102149.22;5057173;28;45402;-54
2021/12/13 00:15:24;;;;;;;;;6.00;6.00;;;;;21.42;39.56;102147.50;5056669;28;46558;-55
2021/12/13 00:17:51;;;;;;;;;7.50;6.50;;;;;21.41;39.64;102151.03;5056673;28;45285;-57
2021/12/13 00:20:37;;;;;;;;;6.00;6.00;;;;;21.42;39.50;102158.03;5056811;28;45320;-54
2021/12/13 00:23:15;;;;;;;;;5.75;5.75;;;;;21.40;39.60;102157.25;5056965;28;45174;-55
2021/12/13 00:25:44;;;;;;;;;7.00;6.00;;;;;21.39;39.53;102137.91;5056805;28;46206;-58
2021/12/13 00:28:14;;;;;;;;;6.75;6.75;;;;;21.40;39.19;102144.06;5056966;28;45776;-53
2021/12/13 00:31:09;;;;;;;;;7.00;5.75;;;;;21.39;39.49;102134.41;5057003;28;45323;-57
2021/12/13 00:34:08;;;;;;;;;6.50;6.00;;;;;21.38;39.80;102136.22;5038530;28;45347;-54
2021/12/13 00:37:01;;;;;;;;;5.00;5.00;;;;;21.37;39.63;102136.25;5056373;28;46553;-57
2021/12/13 00:39:31;;;;;;;;;8.00;5.00;;;;;21.35;39.26;102133.69;5056221;28;45288;-56
2021/12/13 00:41:57;;;;;;;;;7.00;5.50;;;;;21.34;39.69;102129.31;5056738;28;46068;-56
2021/12/13 00:44:29;;;;;;;;;6.00;6.00;;;;;21.35;39.50;102135.44;5038608;28;45307;-56
2021/12/13 00:46:57;;;;;;;;;6.00;6.00;;;;;21.35;39.28;102132.81;5056446;28;45676;-55
2021/12/13 00:49:26;;;;;;;;;6.25;5.00;;;;;21.34;39.35;102125.81;5056454;28;46644;-56
2021/12/13 00:51:56;;;;;;;;;7.00;6.00;;;;;21.33;39.68;102126.75;5038399;28;45289;-58
2021/12/13 00:54:39;;;;;;;;;6.00;5.00;;;;;21.31;39.57;102132.06;5056499;28;45256;-56
2021/12/13 00:57:21;;;;;;;;;4.25;4.25;;;;;21.30;39.71;102123.31;5056236;28;45470;-56
2021/12/13 01:00:10;;;;;;;;;7.25;6.00;;;;;21.30;39.73;102128.59;5056403;28;45468;-56
2021/12/13 01:02:48;;;;;;;;;6.00;4.00;;;;;21.30;39.37;102138.25;5056208;28;45319;-56
2021/12/13 01:05:30;;;;;;;;;5.75;5.75;;;;;21.30;39.50;102138.25;5056738;28;45353;-46
2021/12/13 01:08:31;;;;;;;;;7.00;5.50;;;;;21.28;39.51;102148.88;5056324;28;45399;-56
2021/12/13 01:11:07;;;;;;;;;6.00;6.00;;;;;21.28;39.40;102140.09;5056030;28;45387;-55
2021/12/13 01:13:43;;;;;;;;;6.00;5.00;;;;;21.26;39.55;102142.78;5056345;28;45468;-57
2021/12/13 01:20:05;;;;;;;;;5.00;5.00;;;;;21.25;39.74;102141.06;5059319;28;45392;-55
2021/12/13 01:22:56;;;;;;;;;7.75;6.75;;;;;21.24;39.56;102131.44;5046250;28;45171;-51
2021/12/13 01:26:02;;;;;;;;;6.00;6.00;;;;;21.25;39.91;102127.03;5059657;28;45280;-56
2021/12/13 01:28:38;;;;;;;;;5.75;5.75;;;;;21.24;39.87;102130.59;5046183;28;45496;-52
2021/12/13 01:31:09;;;;;;;;;5.00;5.00;;;;;21.23;39.57;102135.00;5059218;28;46516;-53
2021/12/13 01:33:39;;;;;;;;;8.00;5.00;;;;;21.21;39.41;102139.47;5041253;28;45927;-56
2021/12/13 01:36:07;;;;;;;;;4.25;4.25;;;;;21.22;39.89;102135.91;5041316;28;45344;-54
2021/12/13 01:38:40;;;;;;;;;6.00;6.00;;;;;21.23;39.66;102136.78;5059553;28;45250;-50
2021/12/13 01:41:13;;;;;;;;;6.00;4.25;;;;;21.20;39.42;102137.75;5059077;28;46213;-50
2021/12/13 01:43:44;;;;;;;;;6.00;6.00;;;;;21.20;39.88;102140.41;5059091;28;45776;-52
2021/12/13 01:46:09;;;;;;;;;6.50;6.25;;;;;21.20;39.78;102145.69;5059268;28;45296;-50
2021/12/13 01:48:43;;;;;;;;;8.00;5.75;;;;;21.20;39.61;102153.59;5059319;28;45249;-52
2021/12/13 01:51:15;;;;;;;;;6.50;5.25;;;;;21.19;39.70;102145.72;5058993;28;46293;-55
2021/12/13 01:53:52;;;;;;;;;4.75;4.00;;;;;21.19;39.87;102146.59;5058742;28;45268;-52
2021/12/13 01:56:45;;;;;;;;;5.00;5.00;;;;;21.18;39.42;102144.88;5058964;28;45221;-52
2021/12/13 02:02:09;;;;;;;;;4.00;4.00;;;;;21.17;40.01;102143.16;5058893;28;46349;-47
2021/12/13 02:04:36;;;;;;;;;6.25;6.00;;;;;21.18;40.09;102144.88;5058988;28;45659;-46
2021/12/13 02:07:03;;;;;;;;;7.25;6.00;;;;;21.17;40.11;102145.78;5040813;28;45953;-56
2021/12/13 02:09:42;;;;;;;;;5.00;5.00;;;;;21.16;39.88;102142.28;5058912;28;45510;-53
2021/12/13 02:12:14;;;;;;;;;5.50;5.50;;;;;21.13;40.14;102139.78;5058761;28;46439;-55
2021/12/13 02:14:48;;;;;;;;;5.25;5.00;;;;;21.13;40.01;102141.53;5058539;28;45390;-53
2021/12/13 02:17:21;;;;;;;;;9.00;8.00;;;;;21.12;40.07;102145.94;5059062;28;45441;-52
2021/12/13 02:20:06;;;;;;;;;5.25;5.25;;;;;21.09;40.22;102138.16;5059265;28;45419;-53
2021/12/13 02:22:39;;;;;;;;;5.00;5.00;;;;;21.12;39.74;102147.72;5040351;28;48719;-57
2021/12/13 02:25:29;;;;;;;;;5.75;5.75;;;;;21.12;39.75;102163.53;5058607;28;45740;-57
2021/12/13 02:28:12;;;;;;;;;7.00;6.00;;;;;21.11;40.06;102159.19;5058644;28;45371;-57
2021/12/13 02:30:40;;;;;;;;;7.75;7.25;;;;;21.12;40.13;102163.53;5057445;28;45929;-54
2021/12/13 02:33:20;;;;;;;;;5.00;5.00;;;;;21.10;39.93;102158.31;5040198;28;48312;-54
2021/12/13 02:35:53;;;;;;;;;6.50;4.75;;;;;21.10;40.06;102152.22;5058665;28;45917;-57
2021/12/13 02:38:21;;;;;;;;;7.25;6.75;;;;;21.10;39.94;102152.22;5058584;28;45226;-50
2021/12/13 02:40:48;;;;;;;;;6.75;6.25;;;;;21.08;39.71;102143.50;5058761;28;45261;-56
2021/12/13 02:43:16;;;;;;;;;8.00;6.25;;;;;21.08;40.20;102149.59;5058468;28;46512;-56
2021/12/13 02:45:50;;;;;;;;;6.25;6.25;;;;;21.08;39.82;102148.75;5058210;28;45298;-57
2021/12/13 02:48:41;;;;;;;;;6.00;6.00;;;;;21.07;40.04;102141.78;5040522;28;45421;-56
2021/12/13 02:51:14;;;;;;;;;11.00;8.25;;;;;21.07;40.15;102153.16;5058468;28;45363;-56
2021/12/13 02:53:48;;;;;;;;;7.25;6.00;;;;;21.07;39.98;102147.03;5058064;28;46487;-56
2021/12/13 02:56:16;;;;;;;;;8.75;6.00;;;;;21.07;39.80;102149.69;5058006;28;45390;-53
2021/12/13 02:58:42;;;;;;;;;5.75;5.75;;;;;21.05;40.23;102140.97;5058225;28;45462;-55
2021/12/13 03:01:20;;;;;;;;;6.00;6.00;;;;;21.06;40.28;102140.03;5058149;28;45617;-56
2021/12/13 03:03:51;;;;;;;;;6.75;5.00;;;;;21.06;39.84;102140.03;5057927;28;45550;-54
2021/12/13 03:06:21;;;;;;;;;10.75;7.25;;;;;21.04;40.41;102140.13;5057998;28;45379;-59
2021/12/13 03:08:59;;;;;;;;;7.00;7.00;;;;;21.03;39.78;102132.25;5058405;28;45296;-55
2021/12/13 03:11:31;;;;;;;;;6.00;6.00;;;;;21.04;40.26;102142.75;5057947;28;45233;-55
2021/12/13 03:14:19;;;;;;;;;6.75;6.75;;;;;21.04;39.93;102149.78;5057510;28;47312;-53
2021/12/13 03:16:44;;;;;;;;;6.25;5.25;;;;;21.04;39.96;102152.41;5058130;28;45825;-54
2021/12/13 03:19:41;;;;;;;;;8.00;8.00;;;;;21.03;40.12;102151.56;5057647;28;45201;-56
2021/12/13 03:22:07;;;;;;;;;5.75;5.75;;;;;21.03;39.91;102148.06;5002450;28;45349;-56
2021/12/13 03:24:35;;;;;;;;;7.00;6.33;;;;;21.03;39.86;102146.31;5057366;28;45364;-55
2021/12/13 03:27:08;;;;;;;;;9.00;7.00;;;;;21.01;39.84;102143.69;5057489;28;45765;-56
2021/12/13 03:29:52;;;;;;;;;8.00;7.00;;;;;21.01;40.13;102138.44;5057630;28;45335;-56
2021/12/13 03:32:19;;;;;;;;;8.00;6.00;;;;;20.99;39.98;102132.38;5058122;28;45319;-56
2021/12/13 03:35:06;;;;;;;;;5.25;5.00;;;;;20.99;40.37;102135.00;5057106;28;45527;-54
2021/12/13 03:37:32;;;;;;;;;6.00;6.00;;;;;20.99;40.57;102127.09;5057657;28;46015;-52
2021/12/13 03:40:03;;;;;;;;;6.00;6.00;;;;;20.98;40.31;102127.13;5038889;28;45362;-55
2021/12/13 03:42:37;;;;;;;;;10.75;6.00;;;;;20.98;40.20;102133.28;5057603;28;45458;-56
2021/12/13 03:45:15;;;;;;;;;7.25;6.25;;;;;20.97;40.62;102131.56;5057207;28;45427;-53
2021/12/13 03:47:44;;;;;;;;;6.75;6.00;;;;;20.98;40.01;102130.66;5057060;28;45262;-55
2021/12/13 03:50:19;;;;;;;;;7.00;7.00;;;;;20.99;40.18;102123.59;5039208;28;45464;-56
2021/12/13 03:52:47;;;;;;;;;6.75;6.50;;;;;20.97;40.20;102123.66;5057599;28;45181;-55
2021/12/13 03:55:16;;;;;;;;;6.00;4.75;;;;;20.95;39.99;102112.31;5056928;28;45362;-49
2021/12/13 03:57:50;;;;;;;;;6.75;6.75;;;;;20.97;40.23;102117.50;5057223;28;45869;-49
2021/12/13 04:00:20;;;;;;;;;7.75;7.50;;;;;20.95;40.29;102109.66;5056930;28;45311;-54
2021/12/13 04:02:46;;;;;;;;;6.50;6.50;;;;;20.95;40.34;102111.44;5057405;28;45315;-49
2021/12/13 04:05:17;;;;;;;;;8.00;6.75;;;;;20.94;40.28;102115.84;5056793;28;45433;-53
2021/12/13 04:07:49;;;;;;;;;7.50;6.75;;;;;20.94;40.13;102115.84;5039530;28;45372;-49
2021/12/13 04:10:19;;;;;;;;;6.50;6.25;;;;;20.94;40.53;102113.22;5038812;28;45387;-52
2021/12/13 04:12:50;;;;;;;;;11.00;7.50;;;;;20.95;40.57;102122.84;5057257;28;45595;-50
2021/12/13 04:15:29;;;;;;;;;9.00;7.50;;;;;20.93;40.51;102114.13;5056829;28;45439;-51
2021/12/13 04:18:14;;;;;;;;;8.00;7.00;;;;;20.95;39.96;102117.56;5038392;28;45692;-45
2021/12/13 04:20:42;;;;;;;;;5.00;5.00;;;;;20.93;40.63;102119.41;5056892;28;45324;-48
2021/12/13 04:23:16;;;;;;;;;8.75;7.25;;;;;20.92;40.36;102116.84;5057128;28;45443;-53
2021/12/13 04:25:45;;;;;;;;;9.00;5.75;;;;;20.93;40.04;102123.84;5056390;28;47058;-52
2021/12/13 04:28:22;;;;;;;;;6.00;6.00;;;;;20.91;40.11;102115.97;5056693;28;45457;-56
2021/12/13 04:30:53;;;;;;;;;7.00;6.00;;;;;20.91;40.48;102123.03;5056951;28;45232;-53
2021/12/13 04:33:28;;;;;;;;;7.75;6.00;;;;;20.91;40.18;102118.59;5057085;28;45305;-56
2021/12/13 04:36:16;;;;;;;;;6.00;6.00;;;;;20.89;40.42;102117.78;5056368;28;45557;-57
2021/12/13 04:39:05;;;;;;;;;5.75;5.75;;;;;20.91;40.30;102120.38;5055807;28;45442;-53
2021/12/13 04:41:34;;;;;;;;;8.75;7.50;;;;;20.90;40.44;102119.50;5056537;28;45189;-54
2021/12/13 04:44:08;;;;;;;;;9.00;6.00;;;;;20.88;40.54;102124.00;5056486;28;45458;-57
2021/12/13 04:46:35;;;;;;;;;8.25;5.50;;;;;20.88;40.25;102121.38;5056294;28;46340;-55
2021/12/13 04:49:07;;;;;;;;;8.75;7.00;;;;;20.87;40.58;102124.03;5056225;28;45406;-53
2021/12/13 04:51:43;;;;;;;;;5.25;5.25;;;;;20.88;40.17;102128.41;5055423;28;45464;-53
2021/12/13 04:54:12;;;;;;;;;7.50;6.00;;;;;20.84;40.69;102125.88;5056447;28;45434;-57
2021/12/13 04:56:38;;;;;;;;;5.50;4.50;;;;;20.87;40.22;102134.56;5056071;28;46345;-58
2021/12/13 04:59:06;;;;;;;;;4.25;4.25;;;;;20.87;40.61;102131.94;5056438;28;45811;-57
2021/12/13 05:01:33;;;;;;;;;7.25;6.50;;;;;20.85;40.51;102126.75;5056157;28;45439;-52
2021/12/13 05:04:03;;;;;;;;;6.75;5.50;;;;;20.84;40.24;102120.59;5038433;28;45608;-58
2021/12/13 05:06:32;;;;;;;;;6.00;6.00;;;;;20.85;40.34;102132.00;5055770;28;45432;-56
2021/12/13 05:09:01;;;;;;;;;6.00;5.00;;;;;20.84;40.76;102132.91;5056045;28;45955;-52
2021/12/13 05:11:30;;;;;;;;;11.75;9.00;;;;;20.84;40.68;102135.56;5056265;28;45293;-56
2021/12/13 05:13:57;;;;;;;;;6.00;5.00;;;;;20.84;40.33;102141.69;5056332;28;45696;-45
2021/12/13 05:16:44;;;;;;;;;9.00;6.00;;;;;20.85;40.22;102137.28;5056344;28;45609;-56
2021/12/13 05:19:13;;;;;;;;;5.75;5.75;;;;;20.83;40.55;102139.09;5055672;28;45479;-55
2021/12/13 05:21:46;;;;;;;;;4.75;4.75;;;;;20.80;40.22;102136.56;5056034;28;45428;-56
2021/12/13 05:24:19;;;;;;;;;6.25;6.00;;;;;20.83;40.14;102144.38;5056179;28;45163;-56
2021/12/13 05:26:54;;;;;;;;;6.50;5.25;;;;;20.82;40.23;102146.16;5055759;28;46369;-56
2021/12/13 05:29:28;;;;;;;;;5.50;4.50;;;;;20.81;40.26;102143.56;5055769;28;45442;-55
2021/12/13 05:32:12;;;;;;;;;5.00;5.00;;;;;20.82;40.07;102142.66;5056052;28;45406;-55
2021/12/13 05:34:44;;;;;;;;;6.00;6.00;;;;;20.80;40.12;102139.22;5056133;28;45434;-53
2021/12/13 05:37:10;;;;;;;;;5.50;4.75;;;;;20.81;40.41;102141.81;5055572;28;46478;-52
2021/12/13 05:39:37;;;;;;;;;4.75;4.75;;;;;20.79;40.71;102142.75;5055684;28;45247;-50
2021/12/13 05:42:10;;;;;;;;;7.00;6.00;;;;;20.80;40.73;102140.09;5055736;28;45333;-54
2021/12/13 05:44:42;;;;;;;;;5.50;5.00;;;;;20.80;40.57;102141.84;5056056;28;45244;-57
2021/12/13 05:47:27;;;;;;;;;6.50;4.00;;;;;20.79;40.36;102145.38;5055642;28;45280;-55
2021/12/13 05:49:53;;;;;;;;;6.00;4.25;;;;;20.79;40.58;102142.75;5056026;28;45248;-56
2021/12/13 05:52:26;;;;;;;;;6.00;5.00;;;;;20.80;40.15;102144.47;5037545;28;45246;-56
2021/12/13 05:54:58;;;;;;;;;8.00;6.50;;;;;20.77;40.70;102139.34;5037616;28;45385;-56
2021/12/13 05:57:41;;;;;;;;;8.00;6.75;;;;;20.75;40.49;102147.28;5055648;28;46441;-56
2021/12/13 06:00:18;;;;;;;;;7.25;7.25;;;;;20.73;40.26;102135.03;5055668;28;45343;-56
2021/12/13 06:03:18;;;;;;;;;7.00;7.00;;;;;20.70;40.53;102139.50;5057949;28;45423;-56
2021/12/13 06:05:52;;;;;;;;;8.75;7.75;;;;;20.67;40.71;102144.03;5059022;28;45249;-53
2021/12/13 06:08:30;;;;;;;;;7.00;6.00;;;;;20.65;40.57;102146.72;5058720;28;47411;-57
2021/12/13 06:10:59;;;;;;;;;8.50;7.25;;;;;20.64;40.19;102147.63;5059027;28;45261;-57
2021/12/13 06:13:43;;;;;;;;;7.75;7.50;;;;;20.61;40.31;102139.84;5059240;28;45402;-54
2021/12/13 06:16:24;;;;;;;;;7.75;7.50;;;;;20.59;40.55;102152.19;5040891;28;45684;-58
2021/12/13 06:18:58;;;;;;;;;10.00;9.25;;;;;20.57;40.06;102146.13;5058389;28;45465;-57
2021/12/13 06:21:43;;;;;;;;;8.25;6.50;;;;;20.53;40.23;102141.88;5058932;28;45776;-53
2021/12/13 06:24:10;;;;;;;;;8.25;7.00;;;;;20.52;40.32;102143.63;5058916;28;45284;-57
2021/12/13 06:26:36;;;;;;;;;6.25;6.25;;;;;20.51;40.44;102146.34;5058935;28;45217;-55
2021/12/13 06:29:06;;;;;;;;;9.00;7.00;;;;;20.52;40.06;102150.69;5058405;28;46613;-53
2021/12/13 06:31:50;;;;;;;;;7.25;7.25;;;;;20.53;40.42;102148.00;5058541;28;45421;-54
2021/12/13 06:34:16;;;;;;;;;8.50;5.75;;;;;20.54;40.36;102149.72;5058450;28;45414;-56
2021/12/13 06:36:52;;;;;;;;;7.75;7.75;;;;;20.57;40.19;102147.91;5058563;28;45597;-57
2021/12/13 06:39:30;;;;;;;;;6.75;5.50;;;;;20.56;40.26;102157.56;5058266;28;46484;-50
2021/12/13 06:42:03;;;;;;;;;8.25;5.00;;;;;20.55;40.23;102150.59;5058628;28;45237;-56
2021/12/13 06:44:39;;;;;;;;;7.00;7.00;;;;;20.58;40.47;102165.44;5058792;28;45551;-48
2021/12/13 06:47:14;;;;;;;;;9.00;6.50;;;;;20.57;40.22;102164.56;5058458;28;45574;-54
2021/12/13 06:50:03;;;;;;;;;7.50;7.00;;;;;20.56;40.50;102157.56;5058163;28;45557;-56
2021/12/13 06:52:34;;;;;;;;;5.75;5.75;;;;;20.55;40.38;102161.13;5058329;28;45802;-54
2021/12/13 06:55:06;;;;;;;;;6.75;6.00;;;;;20.57;40.12;102168.97;5040412;28;45285;-52
2021/12/13 06:57:36;;;;;;;;;8.25;7.25;;;;;20.55;40.17;102171.66;5058372;28;45360;-45
2021/12/13 07:00:15;;;;;;;;;6.00;6.00;;;;;20.57;40.62;102163.69;5057698;28;45375;-51
2021/12/13 07:03:03;;;;;;;;;6.00;5.50;;;;;20.55;40.20;102155.88;5057984;28;46230;-48
2021/12/13 07:05:42;;;;;;;;;7.75;7.75;;;;;20.54;39.89;102159.41;5058396;28;45332;-55
2021/12/13 07:08:19;;;;;;;;;5.75;5.75;;;;;20.53;39.85;102145.38;5058070;28;45487;-51
2021/12/13 07:10:52;;;;;;;;;6.00;4.00;;;;;20.54;40.41;102154.16;5057598;28;47141;-53
2021/12/13 07:13:36;;;;;;;;;5.75;5.75;;;;;20.53;40.25;102153.25;5056795;28;45379;-51
2021/12/13 07:16:15;;;;;;;;;7.00;7.00;;;;;20.54;40.34;102148.88;5057813;28;45431;-54
2021/12/13 07:18:48;;;;;;;;;6.25;6.25;;;;;20.53;40.37;102150.63;5057876;28;45504;-57
2021/12/13 07:21:20;;;;;;;;;5.50;5.50;;;;;20.52;40.06;102142.78;5057386;28;45519;-49
2021/12/13 07:24:09;;;;;;;;;5.00;5.00;;;;;20.52;40.32;102145.44;5057639;28;45460;-49
2021/12/13 07:26:37;;;;;;;;;4.00;4.00;;;;;20.52;40.16;102145.44;5057387;28;45384;-50
2021/12/13 07:29:09;;;;;;;;;6.25;5.50;;;;;20.51;40.55;102143.69;5057839;28;45189;-48
2021/12/13 07:31:36;;;;;;;;;5.25;4.75;;;;;20.52;40.15;102150.69;5057476;28;46524;-53
2021/12/13 07:34:19;;;;;;;;;6.00;5.00;;;;;20.50;39.95;102144.63;5057770;28;45811;-57
2021/12/13 07:37:01;;;;;;;;;7.50;6.00;;;;;20.51;39.97;102151.59;5057493;28;45332;-54
2021/12/13 07:39:31;;;;;;;;;4.00;4.00;;;;;20.50;40.02;102152.50;5057620;28;45449;-54
2021/12/13 07:42:01;;;;;;;;;5.75;4.00;;;;;20.50;40.22;102160.41;5057209;28;46953;-52
2021/12/13 07:44:53;;;;;;;;;6.50;5.00;;;;;20.51;39.98;102164.78;5057145;28;45993;-53
2021/12/13 07:47:23;;;;;;;;;3.00;3.00;;;;;20.50;40.67;102173.59;5052530;28;45557;-51
2021/12/13 07:49:56;;;;;;;;;5.00;4.00;;;;;20.48;40.24;102165.75;5057648;28;45432;-58
2021/12/13 07:52:24;;;;;;;;;4.50;4.50;;;;;20.48;40.08;102167.50;5057094;28;45436;-58
2021/12/13 07:54:51;;;;;;;;;4.50;3.00;;;;;20.49;40.27;102162.19;5057003;28;45776;-56
2021/12/13 07:57:31;;;;;;;;;3.75;3.75;;;;;20.49;40.30;102159.56;5057195;28;45380;-56
2021/12/13 07:59:58;;;;;;;;;4.75;4.75;;;;;20.49;40.05;102163.97;5038936;28;45435;-55
2021/12/13 08:02:33;;;;;;;;;4.00;4.00;;;;;20.49;39.87;102158.69;5057047;28;46705;-52
2021/12/13 08:05:12;;;;;;;;;5.00;4.00;;;;;20.48;40.27;102162.22;5057247;28;45391;-56
2021/12/13 08:07:50;;;;;;;;;4.00;4.00;;;;;20.47;39.99;102158.75;5056983;28;45296;-57
2021/12/13 08:10:23;;;;;;;;;5.00;4.50;;;;;20.45;40.41;102154.47;5038894;28;45259;-51
2021/12/13 08:12:54;;;;;;;;;5.00;4.25;;;;;20.46;40.53;102161.41;5038753;28;46957;-55
2021/12/13 08:15:22;;;;;;;;;4.50;4.50;;;;;20.45;40.02;102160.56;5056677;28;45487;-52
2021/12/13 08:17:55;;;;;;;;;5.00;4.00;;;;;20.45;40.16;102165.00;5056689;28;45383;-56
2021/12/13 08:20:28;;;;;;;;;4.50;3.25;;;;;20.44;39.99;102168.53;5056965;28;45395;-52
2021/12/13 08:22:55;;;;;;;;;4.25;3.50;;;;;20.44;40.36;102164.13;5056507;28;46712;-51
2021/12/13 08:25:25;;;;;;;;;4.75;4.75;;;;;20.44;40.12;102169.38;5038494;28;45364;-51
2021/12/13 08:28:12;;;;;;;;;6.00;4.75;;;;;20.46;40.67;102174.59;5057026;28;45540;-50
2021/12/13 08:30:53;;;;;;;;;5.00;3.75;;;;;20.46;40.46;102171.97;5056673;28;45437;-52
2021/12/13 08:33:24;;;;;;;;;3.50;3.50;;;;;20.47;40.06;102173.69;5056525;28;46465;-57
2021/12/13 08:36:13;;;;;;;;;5.25;5.25;;;;;20.47;40.57;102178.94;5056406;28;45935;-53
2021/12/13 08:38:47;;;;;;;;;3.75;3.50;;;;;20.47;40.55;102174.56;5055448;28;45215;-57
2021/12/13 08:41:15;;;;;;;;;5.00;4.00;;;;;20.45;40.21;102165.84;5056639;28;45598;-52
2021/12/13 08:43:46;;;;;;;;;5.50;4.50;;;;;20.44;40.40;102168.53;5056283;28;45411;-54
2021/12/13 08:46:22;;;;;;;;;4.00;4.00;;;;;20.44;40.07;102173.81;5056449;28;45253;-57
2021/12/13 08:48:51;;;;;;;;;3.00;3.00;;;;;20.44;40.49;102179.06;5038291;28;45297;-54
2021/12/13 08:51:24;;;;;;;;;3.00;3.00;;;;;20.44;40.39;102189.59;5056429;28;45585;-55
2021/12/13 08:54:05;;;;;;;;;4.00;4.00;;;;;20.42;40.53;102176.47;5056151;28;45472;-49
2021/12/13 08:56:34;;;;;;;;;3.00;3.00;;;;;20.42;40.13;102176.47;5056416;28;45270;-48
2021/12/13 08:59:20;;;;;;;;;4.00;3.25;;;;;20.41;40.38;102174.75;5056330;28;45338;-48
2021/12/13 09:01:57;;;;;;;;;4.25;2.50;;;;;20.41;40.11;102177.38;5056359;28;45459;-53
2021/12/13 09:04:37;;;;;;;;;5.25;4.50;;;;;20.42;40.48;102175.63;5056174;28;46429;-55
2021/12/13 09:07:05;;;;;;;;;4.50;4.50;;;;;20.42;40.47;102180.91;5038148;28;45818;-54
2021/12/13 09:09:32;;;;;;;;;3.00;3.00;;;;;20.42;40.82;102186.16;5038284;28;45528;-57
2021/12/13 09:12:01;;;;;;;;;3.00;3.00;;;;;20.41;40.11;102184.44;5056417;28;45308;-52
2021/12/13 09:14:39;;;;;;;;;2.50;2.50;;;;;20.41;40.47;102189.69;5055878;28;45414;-52
2021/12/13 09:17:23;;;;;;;;;3.25;3.00;;;;;20.39;40.42;102187.97;5056194;28;45236;-54
2021/12/13 09:19:49;;;;;;;;;2.75;2.75;;;;;20.39;40.22;102193.25;5056029;28;45390;-53
2021/12/13 09:22:26;;;;;;;;;4.00;4.00;;;;;20.38;40.36;102186.25;5056242;28;45462;-55
2021/12/13 09:25:04;;;;;;;;;4.00;2.50;;;;;20.38;40.35;102196.78;5037651;28;48060;-53
2021/12/13 09:27:39;;;;;;;;;2.50;2.50;;;;;20.37;40.30;102202.97;5054963;28;45446;-53
2021/12/13 09:30:41;;;;;;;;;2.25;0.75;;;;;20.35;40.40;102196.03;5056390;28;45376;-56
2021/12/13 09:33:12;;;;;;;;;5.00;4.00;;;;;20.39;40.71;102205.56;5056305;28;45350;-57
2021/12/13 09:35:48;;;;;;;;;4.00;3.00;;;;;20.38;40.35;102209.09;5055713;28;45438;-49
2021/12/13 09:38:19;;;;;;;;;4.00;3.00;;;;;20.37;40.64;102205.59;5058848;28;45682;-57
2021/12/13 09:41:14;;;;;;;;;4.00;4.00;;;;;20.36;40.85;102203.88;5059335;28;45818;-56
2021/12/13 09:43:52;;;;;;;;;1.00;1.00;;;;;20.36;40.47;102201.25;5055444;28;45367;-53
2021/12/13 09:46:30;;;;;;;;;2.75;2.00;;;;;20.35;40.55;102199.50;5058980;28;45606;-56
2021/12/13 09:48:57;;;;;;;;;2.00;2.00;;;;;20.36;40.78;102201.25;5059219;28;45386;-50
2021/12/13 09:51:31;;;;;;;;;2.00;2.00;;;;;20.36;40.25;102198.59;5040971;28;45435;-56
2021/12/13 09:54:02;;;;;;;;;3.75;3.75;;;;;20.35;40.67;102196.03;5059207;28;45372;-54
2021/12/13 09:56:32;;;;;;;;;2.25;2.25;;;;;20.35;40.26;102191.63;5059053;28;46345;-57
2021/12/13 09:59:06;;;;;;;;;2.00;2.00;;;;;20.35;40.35;102202.16;5058798;28;45286;-56
2021/12/13 10:01:37;;;;;;;;;3.25;2.50;;;;;20.35;40.04;102202.16;5059079;28;45308;-56
2021/12/13 10:04:14;;;;;;;;;2.00;0.50;;;;;20.34;40.07;102197.78;5059155;28;45221;-54
2021/12/13 10:07:07;;;;;;;;;2.00;2.00;;;;;20.35;40.28;102212.69;5058526;28;46427;-56
2021/12/13 10:09:39;;;;;;;;;2.00;2.00;;;;;20.34;40.51;102205.69;5048413;28;45781;-54
2021/12/13 10:12:15;;;;;;;;;2.00;2.00;;;;;20.34;40.13;102213.59;5059365;28;45431;-56
2021/12/13 10:14:45;;;;;;;;;3.50;2.00;;;;;20.34;40.14;102205.69;5058759;28;45530;-53
2021/12/13 10:17:13;;;;;;;;;2.00;2.00;;;;;20.35;39.93;102203.94;5058277;28;46400;-55
2021/12/13 10:19:43;;;;;;;;;4.50;1.00;;;;;20.32;40.18;102199.63;5058588;28;45914;-57
2021/12/13 10:22:11;;;;;;;;;1.75;1.00;;;;;20.35;40.45;102201.28;5058994;28;45273;-56
2021/12/13 10:24:42;;;;;;;;;3.25;2.00;;;;;20.33;40.33;102196.09;5059162;28;45342;-56
2021/12/13 10:27:10;;;;;;;;;1.75;1.75;;;;;20.34;40.35;102195.16;5058751;28;45539;-55
2021/12/13 10:29:38;;;;;;;;;2.00;2.00;;;;;20.33;40.34;102197.84;5058844;28;45796;-56
2021/12/13 10:32:12;;;;;;;;;1.00;1.00;;;;;20.31;39.74;102184.75;5058659;28;45363;-56
2021/12/13 10:34:45;;;;;;;;;2.25;2.25;;;;;20.33;40.14;102187.31;5059074;28;45336;-55
2021/12/13 10:37:21;;;;;;;;;1.50;1.50;;;;;20.32;39.79;102183.84;5058553;28;45351;-46
2021/12/13 10:39:52;;;;;;;;;2.00;2.00;;;;;20.32;40.27;102186.47;5058423;28;45939;-57
2021/12/13 10:42:26;;;;;;;;;1.00;1.00;;;;;20.32;40.19;102186.47;5058187;28;45348;-52
2021/12/13 10:44:52;;;;;;;;;0.75;0.75;;;;;20.31;39.89;102183.88;5040737;28;45380;-54
2021/12/13 10:47:34;;;;;;;;;1.50;1.50;;;;;20.30;39.82;102188.28;5057797;28;46055;-55
2021/12/13 10:50:02;;;;;;;;;1.50;1.50;;;;;20.32;40.05;102193.50;5057539;28;45368;-52
2021/12/13 10:52:27;;;;;;;;;1.00;1.00;;;;;20.31;40.00;102187.38;5058348;28;45194;-55
2021/12/13 10:54:56;;;;;;;;;1.00;1.00;;;;;20.30;40.01;102193.56;5058256;28;45559;-54
2021/12/13 10:57:27;;;;;;;;;1.00;1.00;;;;;20.29;39.83;102180.41;5058165;28;45560;-55
2021/12/13 10:59:55;;;;;;;;;1.00;1.00;;;;;20.29;39.75;102181.28;5057900;28;45248;-55
2021/12/13 11:02:26;;;;;;;;;1.75;1.75;;;;;20.29;39.83;102183.94;5058139;28;45356;-48
2021/12/13 11:04:57;;;;;;;;;0.50;0.50;;;;;20.29;39.53;102186.56;5058114;28;45364;-54
2021/12/13 11:07:24;;;;;;;;;1.00;1.00;;;;;20.29;40.04;102185.69;5057969;28;46700;-54
2021/12/13 11:09:51;;;;;;;;;1.75;1.75;;;;;20.28;39.89;102190.09;5057860;28;45466;-53
2021/12/13 11:12:24;;;;;;;;;1.00;1.00;;;;;20.28;40.16;102187.47;5057971;28;45193;-55
2021/12/13 11:14:55;;;;;;;;;2.00;2.00;;;;;20.28;40.02;102190.09;5058025;28;45340;-56
2021/12/13 11:17:23;;;;;;;;;1.25;1.00;;;;;20.27;40.05;102183.13;5057396;28;46483;-53
2021/12/13 11:19:52;;;;;;;;;1.00;1.00;;;;;20.25;39.63;102184.94;5057824;28;45399;-56
2021/12/13 11:22:23;;;;;;;;;1.00;1.00;;;;;20.27;39.42;102190.16;5057799;28;45308;-56
2021/12/13 11:24:53;;;;;;;;;1.00;1.00;;;;;20.27;39.48;102188.38;5057972;28;45492;-56
2021/12/13 11:27:24;;;;;;;;;1.50;1.50;;;;;20.26;39.38;102189.28;5057585;28;46316;-55
2021/12/13 11:29:51;;;;;;;;;1.50;1.50;;;;;20.26;39.83;102185.81;5057532;28;45924;-54
2021/12/13 11:32:37;;;;;;;;;1.75;1.75;;;;;20.25;39.90;102179.66;5039440;28;45288;-57
2021/12/13 11:35:11;;;;;;;;;1.50;1.50;;;;;20.26;39.64;102184.03;5057867;28;45290;-57
2021/12/13 11:37:51;;;;;;;;;1.00;1.00;;;;;20.26;39.46;102180.53;5057388;28;45530;-56
2021/12/13 11:40:44;;;;;;;;;1.00;1.00;;;;;20.26;39.65;102186.66;5039174;28;45849;-56
2021/12/13 11:43:56;;;;;;;;;2.50;0.25;;;;;20.24;39.91;102177.94;5057830;28;45315;-55
2021/12/13 11:46:59;;;;;;;;;0.75;0.75;;;;;20.24;39.50;102173.56;5015293;28;45453;-56
2021/12/13 11:49:47;;;;;;;;;1.50;1.50;;;;;20.22;39.33;102170.09;5057225;28;45331;-53
2021/12/13 11:52:42;;;;;;;;;1.00;1.00;;;;;20.22;39.12;102172.72;5008122;28;45746;-55
2021/12/13 11:55:37;;;;;;;;;1.00;1.00;;;;;20.22;39.43;102172.72;5056925;28;45244;-57
2021/12/13 11:58:31;;;;;;;;;1.50;1.00;;;;;20.22;39.91;102169.25;5057470;28;45236;-56
2021/12/13 12:01:34;;;;;;;;;1.00;1.00;;;;;20.21;39.75;102157.84;5056506;28;45464;-54
2021/12/13 12:04:11;;;;;;;;;0.75;0.75;;;;;20.21;39.73;102157.00;5056935;28;45344;-56
2021/12/13 12:07:04;;;;;;;;;2.00;0.25;;;;;20.20;39.26;102150.00;5057126;28;45229;-55
2021/12/13 12:09:51;;;;;;;;;0.75;0.75;;;;;20.20;39.27;102144.75;5039054;28;45587;-56